Observations for Trim Market St
| Time | AQI | Temp °C | Hum % | Pres Pa | CO μg/m³ | H₂S μg/m³ | NO μg/m³ | NO₂ μg/m³ | O₃ μg/m³ | SO₂ μg/m³ | PM1 μg/m³ | PM2.5 μg/m³ | PM10 μg/m³ |
|---|---|---|---|---|---|---|---|---|---|---|---|---|---|
| Wednesday 12 August 2026 | |||||||||||||
| 00:39 | 2 | 20.9 | 56 | 57,854 | 0 | 0 | 1.21 | 18.33 | 63.45 | 0 | 1.43 | 2.68 | 3.99 |
| 00:38 | 2 | 20.9 | 56 | 57,845 | 0 | 0 | 1.21 | 18.91 | 58.26 | 0 | 0.71 | 3.19 | 3.99 |
| 00:37 | 2 | 20.9 | 56 | 57,828 | 0 | 0 | 1.21 | 19.82 | 57.67 | 0 | 1.43 | 3.7 | 4.7 |
| 00:31 | 2 | 21 | 56 | 57,663 | 0 | 0 | 1.21 | 26.72 | 51.6 | 0 | 0.71 | 3.21 | 3.98 |
| 00:23 | 2 | 21.1 | 55 | 57,361 | 0 | 0 | 1.26 | 22.03 | 56.13 | 0 | 1.43 | 2.73 | 3.24 |
| 00:22 | 2 | 21.1 | 55 | 57,324 | 0 | 0 | 1.26 | 12.71 | 63.74 | 0 | 0 | 2.23 | 3.95 |
| 00:21 | 2 | 21.1 | 55 | 57,322 | 0 | 0 | 1.24 | 20.78 | 56.86 | 0 | 2.14 | 4.26 | 5.38 |
| 00:20 | 2 | 21.2 | 55 | 57,265 | 0 | 0 | 1.24 | 30.16 | 57.21 | 0 | 1.43 | 4.77 | 6.81 |
| 00:19 | 2 | 21.2 | 55 | 57,181 | 0 | 0 | 1.25 | 14.93 | 62.62 | 0 | 0.71 | 2.75 | 3.23 |
| 00:18 | 2 | 21.2 | 55 | 57,197 | 0 | 0 | 1.25 | 20.41 | 57.15 | 0 | 0.71 | 3.25 | 4.66 |
| 00:17 | 2 | 21.2 | 55 | 57,130 | 0 | 0 | 1.24 | 13.01 | 62.15 | 0 | 1.43 | 3.77 | 4.66 |
| 00:16 | 2 | 21.2 | 55 | 57,111 | 0 | 0 | 1.24 | 21.02 | 56.73 | 0 | 0 | 2.75 | 3.23 |
| 00:15 | 2 | 21.2 | 55 | 57,051 | 0 | 0 | 1.24 | 18.47 | 63.95 | 0 | 1.43 | 3.77 | 4.66 |
| 00:14 | 2 | 21.2 | 55 | 56,983 | 0 | 0 | 1.23 | 19.7 | 53.34 | 0 | 0.71 | 3.27 | 4.66 |
| 00:13 | 2 | 21.3 | 55 | 56,898 | 0 | 0 | 1.23 | 23.8 | 52.87 | 0 | 0.71 | 2.76 | 3.22 |
| 00:12 | 2 | 21.3 | 55 | 56,828 | 0 | 0 | 1.23 | 20.93 | 64.63 | 0 | 0.71 | 3.27 | 5.37 |
| 00:11 | 2 | 21.3 | 54 | 56,769 | 0 | 0 | 1.23 | 28.73 | 57.13 | 0 | 1.43 | 2.77 | 3.21 |
| 00:10 | 2 | 21.3 | 54 | 56,663 | 0 | 0 | 1.23 | 18.35 | 62.9 | 0 | 2.85 | 4.81 | 6.09 |
| 00:08 | 2 | 21.4 | 54 | 56,582 | 0 | 0 | 1.23 | 14.94 | 61.79 | 0 | 1.43 | 3.8 | 4.65 |
| 00:06 | 2 | 21.4 | 54 | 56,483 | 0 | 0 | 1.24 | 22.43 | 59.43 | 0 | 0.71 | 3.29 | 4.64 |